Time;durP1;ratioP1;P1;durP2;ratioP2;P2;SDS_P1;SDS_P2;PMS_P1;PMS_P2;Temp;Humidity;BMP_temperature;BMP_pressure;BME280_temperature;BME280_humidity;BME280_pressure;Samples;Min_cycle;Max_cycle;Signal;HPM_P1;HPM_P2
2022/04/01 00:00:50;;;;;;;35.10;20.70;;;5.90;99.90;;;;;;4996254;28;20215;-73
2022/04/01 00:03:17;;;;;;;35.03;22.15;;;5.90;99.90;;;;;;4994518;28;20216;-73
2022/04/01 00:05:45;;;;;;;33.45;20.15;;;5.90;99.90;;;;;;4982829;28;20276;-72
2022/04/01 00:08:13;;;;;;;32.60;20.83;;;5.90;99.90;;;;;;4981398;28;20216;-72
2022/04/01 00:10:40;;;;;;;30.85;20.42;;;6.00;99.90;;;;;;4999229;28;20282;-72
2022/04/01 00:13:07;;;;;;;35.25;21.90;;;5.90;99.90;;;;;;4995263;28;20299;-72
2022/04/01 00:15:35;;;;;;;34.33;21.48;;;5.90;99.90;;;;;;4976786;28;20213;-72
2022/04/01 00:18:03;;;;;;;31.92;20.38;;;5.90;99.90;;;;;;4979479;28;20228;-72
2022/04/01 00:20:30;;;;;;;31.80;19.83;;;5.90;99.70;;;;;;4997387;28;20204;-72
2022/04/01 00:22:58;;;;;;;35.70;20.45;;;5.90;99.60;;;;;;4996253;28;20659;-72
2022/04/01 00:25:25;;;;;;;32.90;20.83;;;5.80;99.00;;;;;;4996562;28;20211;-74
2022/04/01 00:27:53;;;;;;;33.80;21.88;;;5.80;99.10;;;;;;4996269;28;20595;-73
2022/04/01 00:30:20;;;;;;;33.08;21.67;;;5.80;99.00;;;;;;4994533;28;20207;-72
2022/04/01 00:32:47;;;;;;;31.50;20.75;;;5.80;98.20;;;;;;4997863;28;20231;-73
2022/04/01 00:35:15;;;;;;;33.85;21.13;;;5.80;98.10;;;;;;4980581;28;20209;-73
2022/04/01 00:37:42;;;;;;;33.13;20.08;;;5.70;96.90;;;;;;4978195;28;20315;-73
2022/04/01 00:40:12;;;;;;;32.58;20.50;;;5.70;97.00;;;;;;4995253;28;20251;-72
2022/04/01 00:42:40;;;;;;;36.58;21.02;;;5.60;97.10;;;;;;4996019;28;20632;-72
2022/04/01 00:45:08;;;;;;;33.75;21.88;;;5.60;97.20;;;;;;4976792;28;20577;-72
2022/04/01 00:47:35;;;;;;;35.72;22.15;;;5.60;97.70;;;;;;4988065;28;20239;-72
2022/04/01 00:50:02;;;;;;;36.35;21.67;;;5.60;97.90;;;;;;4994961;28;20299;-73
2022/04/01 00:52:30;;;;;;;34.25;22.20;;;5.60;97.30;;;;;;4984339;28;20229;-72
2022/04/01 00:54:57;;;;;;;34.25;21.92;;;5.50;97.10;;;;;;4974848;28;20244;-72
2022/04/01 00:57:26;;;;;;;35.75;21.75;;;5.50;97.20;;;;;;4977288;28;20231;-72
2022/04/01 00:59:54;;;;;;;34.03;22.45;;;5.40;97.60;;;;;;4982985;28;20264;-72
2022/04/01 01:02:21;;;;;;;33.92;21.02;;;5.40;98.00;;;;;;4985151;28;20196;-71
2022/04/01 01:04:48;;;;;;;39.85;23.63;;;5.40;98.60;;;;;;4995079;28;20211;-71
2022/04/01 01:07:15;;;;;;;36.30;21.58;;;5.50;98.80;;;;;;4995655;28;20235;-73
2022/04/01 01:09:43;;;;;;;37.70;21.17;;;5.40;97.90;;;;;;5001312;28;20204;-72
2022/04/01 01:12:11;;;;;;;35.78;21.33;;;5.30;98.00;;;;;;5007840;28;20220;-71
2022/04/01 01:14:41;;;;;;;35.85;22.08;;;5.30;98.40;;;;;;5006317;28;20215;-72
2022/04/01 01:17:11;;;;;;;35.83;21.45;;;5.30;98.30;;;;;;4994633;28;20220;-72
2022/04/01 01:19:39;;;;;;;36.80;20.95;;;5.30;98.80;;;;;;5005342;28;20235;-71
2022/04/01 01:22:08;;;;;;;36.13;22.90;;;5.30;98.80;;;;;;5004353;28;20260;-74
2022/04/01 01:24:37;;;;;;;37.22;22.70;;;5.30;99.00;;;;;;5006621;28;20212;-72
2022/04/01 01:27:06;;;;;;;32.72;21.80;;;5.30;99.50;;;;;;5007059;28;20259;-72
2022/04/01 01:29:35;;;;;;;35.85;22.63;;;5.30;99.90;;;;;;5009315;28;20208;-71
2022/04/01 01:32:03;;;;;;;39.67;22.77;;;5.30;99.90;;;;;;5009255;28;20232;-71
2022/04/01 01:34:33;;;;;;;38.33;23.65;;;5.30;99.90;;;;;;5012135;28;20209;-72
2022/04/01 01:37:01;;;;;;;35.35;22.92;;;5.30;99.90;;;;;;5006071;28;20275;-72
2022/04/01 01:39:29;;;;;;;39.55;22.58;;;5.30;99.90;;;;;;4989718;28;20239;-71
2022/04/01 01:41:58;;;;;;;37.92;22.60;;;5.30;99.90;;;;;;4990723;28;20197;-71
2022/04/01 01:44:25;;;;;;;36.90;22.13;;;5.30;99.80;;;;;;5001900;28;20243;-72
2022/04/01 01:49:21;;;;;;;39.33;24.50;;;5.20;99.90;;;;;;5045272;23;20242;-73
2022/04/01 01:54:46;;;;;;;37.92;21.27;;;5.20;99.60;;;;;;5027930;28;20207;-73
2022/04/01 01:57:16;;;;;;;38.50;23.73;;;5.20;99.90;;;;;;5015221;28;20204;-72
2022/04/01 01:59:43;;;;;;;43.10;23.10;;;5.20;99.90;;;;;;5006600;28;20211;-72
2022/04/01 02:02:10;;;;;;;35.72;22.27;;;5.20;99.90;;;;;;5008638;28;20201;-73
2022/04/01 02:04:38;;;;;;;42.13;22.48;;;5.20;99.90;;;;;;5007202;28;20208;-73
2022/04/01 02:07:06;;;;;;;38.40;22.42;;;5.20;99.90;;;;;;5014173;28;20261;-71
2022/04/01 02:09:33;;;;;;;34.85;20.48;;;5.20;99.90;;;;;;5017032;28;20314;-73
2022/04/01 02:12:01;;;;;;;41.03;21.85;;;5.20;99.90;;;;;;5014778;28;20259;-72
2022/04/01 02:14:30;;;;;;;37.55;22.63;;;5.20;99.90;;;;;;5015464;28;20208;-72
2022/04/01 02:16:58;;;;;;;37.63;22.38;;;5.20;99.40;;;;;;5010583;28;20205;-73
2022/04/01 02:19:25;;;;;;;36.90;21.38;;;5.20;99.60;;;;;;4996830;28;20215;-73
2022/04/01 02:21:53;;;;;;;35.88;21.40;;;5.20;99.90;;;;;;5002018;28;20208;-73
2022/04/01 02:24:22;;;;;;;35.28;21.15;;;5.20;99.90;;;;;;5005214;28;20201;-73
2022/04/01 02:26:49;;;;;;;35.83;22.00;;;5.20;99.90;;;;;;5004877;28;20213;-74
2022/04/01 02:29:18;;;;;;;38.85;21.75;;;5.20;99.90;;;;;;5005659;28;20267;-72
2022/04/01 02:31:47;;;;;;;39.35;23.00;;;5.30;99.90;;;;;;5002902;28;20232;-73
2022/04/01 02:34:14;;;;;;;33.80;20.52;;;5.20;99.90;;;;;;5002900;28;20215;-73
2022/04/01 02:36:41;;;;;;;35.58;22.15;;;5.20;99.90;;;;;;5011674;28;20219;-74
2022/04/01 02:39:08;;;;;;;33.80;21.17;;;5.20;99.90;;;;;;5020574;28;20228;-73
2022/04/01 02:41:35;;;;;;;33.78;21.50;;;5.20;99.90;;;;;;5016039;28;20203;-73
2022/04/01 02:44:12;;;;;;;33.45;21.17;;;5.20;99.90;;;;;;5017533;28;20215;-73
2022/04/01 02:46:41;;;;;;;31.42;18.27;;;5.30;99.90;;;;;;5014065;28;20216;-74
2022/04/01 02:49:11;;;;;;;36.30;20.20;;;5.30;99.90;;;;;;4999563;28;20236;-73
2022/04/01 02:51:39;;;;;;;31.75;19.52;;;5.20;99.50;;;;;;5004586;28;20251;-74
2022/04/01 02:54:08;;;;;;;33.72;20.55;;;5.20;98.70;;;;;;5017603;28;20208;-73
2022/04/01 02:56:37;;;;;;;30.77;18.50;;;5.20;97.90;;;;;;5024047;28;20246;-73
2022/04/01 02:59:07;;;;;;;33.45;20.83;;;5.20;97.80;;;;;;5024991;28;20230;-74
2022/04/01 03:01:34;;;;;;;30.15;19.05;;;5.20;97.50;;;;;;5021972;28;20197;-73
2022/04/01 03:04:01;;;;;;;31.80;18.58;;;5.20;97.00;;;;;;5027237;28;20230;-72
2022/04/01 03:06:29;;;;;;;30.95;19.52;;;5.20;97.00;;;;;;5023931;28;20211;-73
2022/04/01 03:08:56;;;;;;;31.02;18.60;;;5.20;97.00;;;;;;5006957;28;20315;-74
2022/04/01 03:11:23;;;;;;;30.20;19.40;;;5.10;96.00;;;;;;5006839;28;20226;-74
2022/04/01 03:13:50;;;;;;;34.70;20.13;;;5.10;95.60;;;;;;5025748;28;20239;-72
2022/04/01 03:16:17;;;;;;;27.20;17.17;;;5.10;95.20;;;;;;5022827;28;20223;-72
2022/04/01 03:18:44;;;;;;;30.73;18.13;;;5.20;94.90;;;;;;5027786;28;20287;-73
2022/04/01 03:21:11;;;;;;;27.75;18.15;;;5.10;94.70;;;;;;5030478;28;20203;-72
2022/04/01 03:23:41;;;;;;;30.08;18.42;;;5.10;94.70;;;;;;5031177;28;20266;-74
2022/04/01 03:26:08;;;;;;;29.90;19.55;;;5.10;94.90;;;;;;5029297;28;20299;-72
2022/04/01 03:28:35;;;;;;;30.10;19.80;;;5.10;95.20;;;;;;5012135;28;20251;-72
2022/04/01 03:31:04;;;;;;;30.13;18.05;;;5.20;95.30;;;;;;5008474;28;20239;-73
2022/04/01 03:33:32;;;;;;;30.30;18.38;;;5.20;95.40;;;;;;5000378;28;20212;-72
2022/04/01 03:36:00;;;;;;;29.05;18.83;;;5.20;95.40;;;;;;5000639;28;20209;-73
2022/04/01 03:38:27;;;;;;;26.63;16.58;;;5.20;95.40;;;;;;4999804;28;20224;-72
2022/04/01 03:40:56;;;;;;;30.05;18.48;;;5.20;95.30;;;;;;5007926;28;20235;-72
2022/04/01 03:43:24;;;;;;;30.33;18.88;;;5.20;95.30;;;;;;5030410;28;20207;-72
2022/04/01 03:45:52;;;;;;;29.90;18.63;;;5.30;95.30;;;;;;5023418;28;20266;-73
2022/04/01 03:48:27;;;;;;;27.00;17.33;;;5.30;94.70;;;;;;5017365;28;20243;-73
2022/04/01 03:50:57;;;;;;;28.95;17.90;;;5.20;94.10;;;;;;5017963;28;20231;-72
2022/04/01 03:53:28;;;;;;;25.42;16.67;;;5.20;94.30;;;;;;5017202;28;20255;-73
2022/04/01 03:55:58;;;;;;;31.20;19.52;;;5.20;93.50;;;;;;5017336;28;20251;-73
2022/04/01 03:58:29;;;;;;;28.75;18.08;;;5.10;93.40;;;;;;5015800;28;20307;-74
2022/04/01 04:00:58;;;;;;;27.48;18.13;;;5.00;92.90;;;;;;5017033;28;20191;-74
2022/04/01 04:03:26;;;;;;;27.42;17.42;;;5.00;92.70;;;;;;5001034;28;20605;-73
2022/04/01 04:05:53;;;;;;;28.73;18.45;;;5.00;92.20;;;;;;4997748;28;20215;-73
2022/04/01 04:08:22;;;;;;;29.60;19.15;;;5.00;91.70;;;;;;4997213;28;20232;-73
2022/04/01 04:10:50;;;;;;;27.67;17.80;;;5.00;91.60;;;;;;4999505;28;20215;-73
2022/04/01 04:13:19;;;;;;;29.42;17.98;;;4.90;90.80;;;;;;5004438;28;20728;-74
2022/04/01 04:15:51;;;;;;;27.20;18.95;;;4.90;90.80;;;;;;4998743;28;20213;-73
2022/04/01 04:18:20;;;;;;;29.58;17.50;;;4.80;90.60;;;;;;4997147;28;20228;-73
2022/04/01 04:21:04;;;;;;;27.52;18.17;;;4.80;90.30;;;;;;4997062;28;20299;-73
2022/04/01 04:23:43;;;;;;;32.13;19.40;;;4.80;89.50;;;;;;4997505;28;20198;-73
2022/04/01 04:26:15;;;;;;;29.30;18.63;;;4.80;89.10;;;;;;4996613;28;20212;-73
2022/04/01 04:28:49;;;;;;;28.30;18.98;;;4.80;88.50;;;;;;4996254;28;20243;-73
2022/04/01 04:31:24;;;;;;;28.88;18.67;;;4.80;87.50;;;;;;4997602;28;20212;-74
2022/04/01 04:33:55;;;;;;;27.77;18.08;;;4.80;86.20;;;;;;5016391;28;20644;-73
2022/04/01 04:36:31;;;;;;;28.40;17.85;;;4.80;85.40;;;;;;5014208;28;20618;-73
2022/04/01 04:39:00;;;;;;;25.05;16.50;;;4.70;83.90;;;;;;5015666;28;20726;-74
2022/04/01 04:41:27;;;;;;;26.65;18.67;;;4.70;84.00;;;;;;5015647;28;20291;-72
2022/04/01 04:43:56;;;;;;;26.65;17.95;;;4.70;84.40;;;;;;5009522;28;20204;-72
2022/04/01 04:46:24;;;;;;;25.45;18.10;;;4.70;84.20;;;;;;5009909;28;20216;-73
2022/04/01 04:48:52;;;;;;;25.45;18.30;;;4.80;83.90;;;;;;5028378;28;20325;-72
2022/04/01 04:51:24;;;;;;;26.50;19.02;;;4.80;84.00;;;;;;5026279;28;20212;-73
2022/04/01 04:53:51;;;;;;;25.85;17.75;;;4.80;83.20;;;;;;5020447;28;20266;-73
2022/04/01 04:56:19;;;;;;;28.55;19.20;;;4.80;83.20;;;;;;5015043;28;20199;-72
2022/04/01 04:58:47;;;;;;;25.83;18.30;;;4.80;83.50;;;;;;5015391;28;20227;-73
2022/04/01 05:01:34;;;;;;;25.50;18.55;;;4.80;83.40;;;;;;5015745;28;20211;-74
2022/04/01 05:04:19;;;;;;;25.15;18.45;;;4.70;81.30;;;;;;5022982;28;20210;-73
2022/04/01 05:06:54;;;;;;;27.95;19.30;;;4.80;79.90;;;;;;5012517;28;20441;-76
2022/04/01 05:09:26;;;;;;;26.58;18.35;;;4.70;78.90;;;;;;5001070;28;20195;-73
2022/04/01 05:12:03;;;;;;;26.73;17.77;;;4.60;78.20;;;;;;5013225;28;20228;-73
2022/04/01 05:14:45;;;;;;;26.00;18.73;;;4.60;78.50;;;;;;5016883;28;20188;-74
2022/04/01 05:17:19;;;;;;;25.33;18.08;;;4.50;79.00;;;;;;5000929;28;20560;-74
2022/04/01 05:19:56;;;;;;;25.63;18.98;;;4.60;79.30;;;;;;4994813;28;20208;-74
2022/04/01 05:22:31;;;;;;;24.63;18.10;;;4.50;78.10;;;;;;4998602;28;20216;-76
2022/04/01 05:25:02;;;;;;;27.33;17.70;;;4.50;78.50;;;;;;5002972;28;20267;-73
2022/04/01 05:27:31;;;;;;;25.05;18.27;;;4.50;77.90;;;;;;5014109;28;20226;-73
2022/04/01 05:30:12;;;;;;;23.30;16.48;;;4.40;76.60;;;;;;5014348;28;20216;-71
2022/04/01 05:32:43;;;;;;;27.10;17.45;;;4.50;77.20;;;;;;5015405;28;20260;-72
2022/04/01 05:35:10;;;;;;;22.27;16.35;;;4.40;76.30;;;;;;5003598;28;20189;-73
2022/04/01 05:37:39;;;;;;;23.58;17.27;;;4.40;76.50;;;;;;4998638;28;20726;-73
2022/04/01 05:40:07;;;;;;;25.45;16.92;;;4.40;76.70;;;;;;5016172;28;20222;-73
2022/04/01 05:42:34;;;;;;;26.75;18.27;;;4.50;76.90;;;;;;5018723;28;20214;-72
2022/04/01 05:45:02;;;;;;;23.17;17.13;;;4.50;76.80;;;;;;4997195;28;20208;-72
2022/04/01 05:47:31;;;;;;;28.25;18.30;;;4.50;75.80;;;;;;5020191;28;20729;-72
2022/04/01 05:50:01;;;;;;;23.85;17.23;;;4.50;75.30;;;;;;5019841;28;20218;-72
2022/04/01 05:52:31;;;;;;;25.35;17.42;;;4.40;75.50;;;;;;5004350;28;20256;-74
2022/04/01 05:54:58;;;;;;;25.60;18.05;;;4.50;75.40;;;;;;5010898;28;20207;-72
2022/04/01 05:57:25;;;;;;;24.40;17.42;;;4.50;74.60;;;;;;5025270;28;20314;-73
2022/04/01 05:59:52;;;;;;;30.00;18.52;;;4.50;74.50;;;;;;5018414;28;20221;-71
2022/04/01 06:02:37;;;;;;;25.95;18.45;;;4.50;73.40;;;;;;5001349;28;20262;-73
2022/04/01 06:05:18;;;;;;;20.92;15.57;;;4.40;73.60;;;;;;5019925;28;20231;-72
2022/04/01 06:07:51;;;;;;;22.50;16.20;;;4.50;74.00;;;;;;5014707;28;20718;-73
2022/04/01 06:10:24;;;;;;;22.38;16.95;;;4.50;73.90;;;;;;5009632;28;20188;-72
2022/04/01 06:13:04;;;;;;;23.27;17.40;;;4.60;73.60;;;;;;5004414;28;20219;-73
2022/04/01 06:15:37;;;;;;;24.30;17.63;;;4.60;72.70;;;;;;5013764;28;20209;-73
2022/04/01 06:18:14;;;;;;;23.88;17.92;;;4.50;72.60;;;;;;5015011;28;20251;-74
2022/04/01 06:20:47;;;;;;;23.48;17.10;;;4.60;73.20;;;;;;5017513;28;20199;-74
2022/04/01 06:23:24;;;;;;;23.67;17.50;;;4.60;72.70;;;;;;5025237;28;20208;-73
2022/04/01 06:25:57;;;;;;;23.55;16.52;;;4.50;72.60;;;;;;5006114;28;20200;-74
2022/04/01 06:28:25;;;;;;;23.23;16.08;;;4.60;72.70;;;;;;5027563;28;20246;-75
2022/04/01 06:30:56;;;;;;;26.02;17.20;;;4.60;72.70;;;;;;5016243;28;20214;-73
2022/04/01 06:33:33;;;;;;;25.45;17.38;;;4.60;72.70;;;;;;5029723;28;20686;-72
2022/04/01 06:36:05;;;;;;;22.95;17.42;;;4.60;72.70;;;;;;5019876;28;20612;-73
2022/04/01 06:38:39;;;;;;;24.70;17.88;;;4.60;72.70;;;;;;5016915;28;20224;-74
2022/04/01 06:41:07;;;;;;;26.02;17.60;;;4.60;72.70;;;;;;4994186;28;20204;-76
2022/04/01 06:43:35;;;;;;;22.15;16.63;;;4.70;72.80;;;;;;4996080;28;20251;-73
2022/04/01 06:46:02;;;;;;;23.52;15.57;;;4.70;72.80;;;;;;5021943;28;20638;-72
2022/04/01 06:48:29;;;;;;;23.55;17.13;;;4.70;72.80;;;;;;5010782;28;20236;-74
2022/04/01 06:50:57;;;;;;;22.55;16.95;;;4.70;72.80;;;;;;5023143;28;20204;-74
2022/04/01 06:53:26;;;;;;;23.08;15.63;;;4.70;72.80;;;;;;5015757;28;20262;-73
2022/04/01 06:55:54;;;;;;;24.85;17.58;;;4.60;72.70;;;;;;5027597;28;20663;-73
2022/04/01 06:58:21;;;;;;;26.92;18.80;;;4.70;72.80;;;;;;5033639;28;20223;-72
2022/04/01 07:00:48;;;;;;;21.15;16.35;;;4.70;72.80;;;;;;5007432;28;20211;-73
2022/04/01 07:03:15;;;;;;;22.00;15.60;;;4.70;72.80;;;;;;5014698;28;20207;-73
2022/04/01 07:05:42;;;;;;;25.73;17.90;;;4.70;72.20;;;;;;5034443;28;20294;-75
2022/04/01 07:08:09;;;;;;;25.02;16.05;;;4.80;72.00;;;;;;5017843;28;20251;-74
2022/04/01 07:10:39;;;;;;;25.52;16.50;;;4.70;70.90;;;;;;5016373;28;20208;-74
2022/04/01 07:13:06;;;;;;;21.00;15.10;;;4.60;71.40;;;;;;4999336;28;20224;-74
2022/04/01 07:15:32;;;;;;;19.67;14.77;;;4.70;71.20;;;;;;5003790;28;20299;-72
2022/04/01 07:17:59;;;;;;;23.15;16.45;;;4.60;72.50;;;;;;5025791;28;20600;-75
2022/04/01 07:20:26;;;;;;;23.10;15.77;;;4.70;72.80;;;;;;5013222;28;20271;-73
2022/04/01 07:22:54;;;;;;;22.35;16.00;;;4.70;71.60;;;;;;4999128;28;20213;-73
2022/04/01 07:25:22;;;;;;;24.67;15.32;;;4.70;72.80;;;;;;5003660;28;20216;-73
2022/04/01 07:27:50;;;;;;;19.45;14.98;;;4.70;72.80;;;;;;5027417;28;20260;-74
2022/04/01 07:30:17;;;;;;;21.00;14.40;;;4.60;71.60;;;;;;5028604;28;20231;-73
2022/04/01 07:32:45;;;;;;;20.92;13.70;;;4.60;71.30;;;;;;5029218;28;20277;-75
2022/04/01 07:35:14;;;;;;;18.38;13.40;;;4.50;71.20;;;;;;5029558;28;20219;-72
2022/04/01 07:37:42;;;;;;;22.77;15.15;;;4.50;72.60;;;;;;5026117;28;20235;-72
2022/04/01 07:40:11;;;;;;;20.27;14.80;;;4.60;72.70;;;;;;5009158;28;20419;-73
2022/04/01 07:42:39;;;;;;;20.63;14.55;;;4.60;71.60;;;;;;5007525;28;20243;-72
2022/04/01 07:45:09;;;;;;;20.08;14.40;;;4.70;71.70;;;;;;5006297;28;20263;-74
2022/04/01 07:47:36;;;;;;;18.50;13.98;;;4.70;71.20;;;;;;5013105;28;20250;-72
2022/04/01 07:50:05;;;;;;;20.98;14.60;;;4.70;71.10;;;;;;5021501;28;20258;-74
2022/04/01 07:52:33;;;;;;;22.88;15.38;;;4.70;70.80;;;;;;5019866;28;20675;-74
2022/04/01 07:55:01;;;;;;;21.63;14.77;;;4.70;70.80;;;;;;5017027;28;20706;-73
2022/04/01 07:57:29;;;;;;;20.50;15.40;;;4.70;70.00;;;;;;5017311;28;20707;-73
2022/04/01 07:59:56;;;;;;;21.83;14.57;;;4.70;69.80;;;;;;5005900;28;20201;-74
2022/04/01 08:02:24;;;;;;;19.08;14.07;;;4.70;70.50;;;;;;4998777;28;20646;-74
2022/04/01 08:04:51;;;;;;;21.92;14.93;;;4.80;69.70;;;;;;4999587;28;20271;-73
2022/04/01 08:07:18;;;;;;;19.95;14.20;;;4.80;69.80;;;;;;4998077;28;20279;-73
2022/04/01 08:09:45;;;;;;;17.83;14.23;;;4.80;69.60;;;;;;5001195;28;20216;-75
2022/04/01 08:12:13;;;;;;;18.63;14.18;;;4.80;69.40;;;;;;5000814;28;20228;-74
2022/04/01 08:14:40;;;;;;;19.98;13.02;;;4.80;68.50;;;;;;5019342;28;20223;-74
2022/04/01 08:17:11;;;;;;;18.77;13.52;;;4.70;68.20;;;;;;5028059;28;20211;-75
2022/04/01 08:19:39;;;;;;;18.13;12.82;;;4.70;69.10;;;;;;5028216;28;20215;-73
2022/04/01 08:22:06;;;;;;;20.70;15.00;;;4.80;67.90;;;;;;5028916;28;20211;-73
2022/04/01 08:24:33;;;;;;;16.48;13.02;;;4.80;68.50;;;;;;5028952;28;20231;-73
2022/04/01 08:27:00;;;;;;;18.63;14.40;;;4.90;68.70;;;;;;5028044;28;20208;-72
2022/04/01 08:29:27;;;;;;;15.82;12.60;;;4.90;67.90;;;;;;5027688;28;20207;-73
2022/04/01 08:31:54;;;;;;;15.95;12.45;;;4.80;66.20;;;;;;5028184;28;20302;-74
2022/04/01 08:34:21;;;;;;;17.88;12.55;;;4.60;67.10;;;;;;5019135;28;20216;-74
2022/04/01 08:36:50;;;;;;;17.92;12.48;;;4.60;67.90;;;;;;5012714;28;20308;-74
2022/04/01 08:39:17;;;;;;;20.55;14.15;;;4.70;68.20;;;;;;5019391;28;20247;-73
2022/04/01 08:41:44;;;;;;;18.73;13.38;;;4.80;68.20;;;;;;5018716;28;20216;-79
2022/04/01 08:44:11;;;;;;;17.35;13.45;;;4.80;67.60;;;;;;5006595;28;20585;-73
2022/04/01 08:46:39;;;;;;;16.40;12.43;;;4.90;66.90;;;;;;5012623;28;20227;-73
2022/04/01 08:49:07;;;;;;;20.88;13.15;;;4.90;66.40;;;;;;5033282;28;20233;-74
2022/04/01 08:51:34;;;;;;;17.27;12.27;;;4.80;66.30;;;;;;5047434;28;20261;-72
2022/04/01 08:54:03;;;;;;;14.63;11.73;;;4.70;66.30;;;;;;5047854;28;20224;-74
2022/04/01 08:56:30;;;;;;;10.50;9.18;;;4.70;66.00;;;;;;5046504;28;20230;-72
2022/04/01 08:58:58;;;;;;;12.27;10.55;;;4.70;64.90;;;;;;5046370;28;20230;-74
2022/04/01 09:01:25;;;;;;;14.32;11.65;;;4.70;64.50;;;;;;5046165;28;20211;-74
2022/04/01 09:03:55;;;;;;;12.68;10.13;;;4.80;64.20;;;;;;5045419;28;20239;-77
2022/04/01 09:06:22;;;;;;;13.80;10.50;;;4.70;64.10;;;;;;5042050;28;20661;-76
2022/04/01 09:08:49;;;;;;;11.13;8.73;;;4.70;64.10;;;;;;4999034;28;20232;-74
2022/04/01 09:11:18;;;;;;;15.40;11.70;;;4.70;64.10;;;;;;4997489;28;20883;-74
2022/04/01 09:13:50;;;;;;;12.05;10.63;;;4.80;64.80;;;;;;4998959;28;20228;-76
2022/04/01 09:16:26;;;;;;;15.23;10.35;;;4.90;64.20;;;;;;4996370;28;20569;-75
2022/04/01 09:18:55;;;;;;;14.55;11.10;;;4.90;64.00;;;;;;5016943;28;20314;-75
2022/04/01 09:21:26;;;;;;;13.27;10.82;;;4.80;64.10;;;;;;5018731;28;20287;-74
2022/04/01 09:23:53;;;;;;;13.07;9.82;;;4.90;64.20;;;;;;5018482;28;20703;-73
2022/04/01 09:26:23;;;;;;;12.50;10.65;;;4.80;64.10;;;;;;5019256;28;20210;-72
2022/04/01 09:28:53;;;;;;;14.80;11.05;;;4.90;63.50;;;;;;5002732;28;20224;-72
2022/04/01 09:31:24;;;;;;;14.45;11.07;;;4.80;64.10;;;;;;5017392;28;20573;-73
2022/04/01 09:33:52;;;;;;;13.45;10.57;;;4.80;64.80;;;;;;5017069;28;20318;-73
2022/04/01 09:36:21;;;;;;;14.35;11.45;;;4.80;64.10;;;;;;5018032;28;20235;-72
2022/04/01 09:38:57;;;;;;;13.02;11.32;;;4.70;64.10;;;;;;5003588;28;20716;-72
2022/04/01 09:41:32;;;;;;;14.68;10.43;;;4.70;64.30;;;;;;5004947;28;20212;-74
2022/04/01 09:44:09;;;;;;;13.50;11.45;;;4.60;64.10;;;;;;5022672;28;20261;-73
2022/04/01 09:46:42;;;;;;;13.95;11.80;;;4.50;65.60;;;;;;5026119;28;20225;-75
2022/04/01 09:49:09;;;;;;;14.18;10.85;;;4.60;66.30;;;;;;5016985;28;20248;-74
2022/04/01 09:51:36;;;;;;;12.65;10.68;;;4.50;67.40;;;;;;5017382;28;20219;-76
2022/04/01 09:54:04;;;;;;;13.43;11.80;;;4.50;67.30;;;;;;5001418;28;20232;-77
2022/04/01 09:56:44;;;;;;;15.35;12.27;;;4.60;67.40;;;;;;4999288;28;20259;-75
2022/04/01 09:59:13;;;;;;;12.45;9.88;;;4.60;66.80;;;;;;5008524;28;20250;-75
2022/04/01 10:01:41;;;;;;;12.25;10.00;;;4.70;67.20;;;;;;4998752;28;20220;-77
2022/04/01 10:04:09;;;;;;;13.77;9.80;;;4.60;65.40;;;;;;5002109;28;20315;-76
2022/04/01 10:06:39;;;;;;;14.20;9.90;;;4.40;65.30;;;;;;5021239;28;20204;-73
2022/04/01 10:09:08;;;;;;;11.63;9.80;;;4.50;66.00;;;;;;5027781;28;20255;-75
2022/04/01 10:11:36;;;;;;;14.77;10.25;;;4.50;66.10;;;;;;5028403;28;20216;-75
2022/04/01 10:14:09;;;;;;;11.90;9.68;;;4.30;66.40;;;;;;5027148;28;20228;-74
2022/04/01 10:16:36;;;;;;;12.43;10.18;;;4.30;67.50;;;;;;5007421;28;20251;-75
2022/04/01 10:19:11;;;;;;;14.80;11.60;;;4.40;67.90;;;;;;5007444;28;20704;-73
2022/04/01 10:21:42;;;;;;;15.93;12.10;;;4.40;68.00;;;;;;5006002;28;20188;-75
2022/04/01 10:24:20;;;;;;;14.65;11.30;;;4.40;68.20;;;;;;5006749;28;20299;-75
2022/04/01 10:27:06;;;;;;;14.02;12.02;;;4.40;68.70;;;;;;5008219;28;20239;-73
2022/04/01 10:29:35;;;;;;;14.77;12.15;;;4.40;69.10;;;;;;5005958;28;20369;-76
2022/04/01 10:32:23;;;;;;;13.98;11.20;;;4.30;68.20;;;;;;5005641;28;20208;-74
2022/04/01 10:34:51;;;;;;;17.50;12.98;;;4.30;68.20;;;;;;5010100;28;20250;-75
2022/04/01 10:37:20;;;;;;;18.23;13.60;;;4.20;69.00;;;;;;5026892;28;20283;-75
2022/04/01 10:39:51;;;;;;;18.48;15.38;;;4.30;69.50;;;;;;5024051;28;20200;-75
2022/04/01 10:42:19;;;;;;;17.70;13.90;;;4.20;68.60;;;;;;5006139;28;20205;-75
2022/04/01 10:44:50;;;;;;;19.08;13.27;;;4.40;68.80;;;;;;5008472;28;20211;-75
2022/04/01 10:47:18;;;;;;;15.27;13.35;;;4.50;66.80;;;;;;5007773;28;20240;-74
2022/04/01 10:52:34;;;;;;;18.33;14.55;;;4.60;64.90;;;;;;5027537;28;20187;-74
2022/04/01 10:55:18;;;;;;;18.50;14.70;;;4.60;65.40;;;;;;5021073;28;20766;-74
2022/04/01 10:57:47;;;;;;;19.35;14.20;;;4.60;64.60;;;;;;5005007;28;20235;-74
2022/04/01 11:00:17;;;;;;;18.65;14.80;;;4.60;64.90;;;;;;5009623;28;20203;-75
2022/04/01 11:02:46;;;;;;;17.15;14.40;;;4.60;65.80;;;;;;5026092;28;20207;-76
2022/04/01 11:05:25;;;;;;;17.48;14.60;;;4.70;65.70;;;;;;5021557;28;20212;-72
2022/04/01 11:08:17;;;;;;;16.60;13.80;;;4.90;66.50;;;;;;5007593;28;20228;-73
2022/04/01 11:11:08;;;;;;;16.85;13.98;;;4.80;64.10;;;;;;5014377;28;20282;-74
2022/04/01 11:13:37;;;;;;;16.33;13.80;;;4.70;64.10;;;;;;5027907;28;20225;-73
2022/04/01 11:16:21;;;;;;;16.67;14.43;;;4.60;65.70;;;;;;5014168;28;20216;-75
2022/04/01 11:19:15;;;;;;;17.02;14.23;;;4.50;66.50;;;;;;5007443;28;20237;-74
2022/04/01 11:21:43;;;;;;;18.00;13.57;;;4.50;68.00;;;;;;5008600;28;20258;-74
2022/04/01 11:24:24;;;;;;;17.27;14.68;;;4.40;68.80;;;;;;5024647;28;20227;-74
2022/04/01 11:26:51;;;;;;;18.92;13.68;;;4.50;69.20;;;;;;5022622;28;20214;-74
2022/04/01 11:29:21;;;;;;;19.15;14.82;;;4.50;69.40;;;;;;5022752;28;20227;-73
2022/04/01 11:31:50;;;;;;;17.23;14.15;;;4.40;69.10;;;;;;5003845;28;20212;-74
2022/04/01 11:34:17;;;;;;;17.70;14.60;;;4.50;70.20;;;;;;5005539;28;20236;-75
2022/04/01 11:36:43;;;;;;;19.60;15.77;;;4.60;69.70;;;;;;5003863;28;20275;-73
2022/04/01 11:39:16;;;;;;;16.23;13.50;;;4.70;68.70;;;;;;5005616;28;20260;-72
2022/04/01 11:41:49;;;;;;;17.13;14.45;;;4.70;67.60;;;;;;5006843;28;20275;-72
2022/04/01 11:44:17;;;;;;;15.05;13.50;;;4.90;68.20;;;;;;5008334;28;20218;-73
2022/04/01 11:46:55;;;;;;;16.65;13.02;;;4.80;64.10;;;;;;5007943;28;20220;-73
2022/04/01 11:49:27;;;;;;;12.75;11.43;;;4.40;64.50;;;;;;5008801;28;20231;-74
2022/04/01 11:51:54;;;;;;;16.83;13.77;;;4.20;66.60;;;;;;5011246;28;20193;-75
2022/04/01 11:54:21;;;;;;;19.50;14.23;;;4.20;68.00;;;;;;5007015;28;20224;-74
2022/04/01 11:56:52;;;;;;;16.25;13.68;;;4.30;69.70;;;;;;5007915;28;20272;-73
2022/04/01 11:59:19;;;;;;;20.63;14.70;;;4.40;70.60;;;;;;5007999;28;20229;-74
2022/04/01 12:01:58;;;;;;;14.88;12.70;;;4.40;68.70;;;;;;5008734;28;20231;-75
2022/04/01 12:04:35;;;;;;;17.00;13.25;;;4.40;66.70;;;;;;5011310;28;20271;-72
2022/04/01 12:09:57;;;;;;;16.92;11.13;;;4.20;67.40;;;;;;5012402;28;20203;-73
2022/04/01 12:12:24;;;;;;;15.77;12.77;;;4.20;67.30;;;;;;5011730;28;20219;-72
2022/04/01 12:14:55;;;;;;;18.42;13.82;;;4.10;69.80;;;;;;5011594;28;20227;-74
2022/04/01 12:17:22;;;;;;;19.30;14.80;;;4.10;69.60;;;;;;5012822;28;20232;-72
2022/04/01 12:19:51;;;;;;;17.88;14.23;;;4.00;70.60;;;;;;5009367;28;20206;-73
2022/04/01 12:22:18;;;;;;;17.83;14.80;;;4.00;72.20;;;;;;5011564;28;20208;-72
2022/04/01 12:24:45;;;;;;;18.63;13.50;;;3.90;72.10;;;;;;5010638;28;20661;-73
2022/04/01 12:27:13;;;;;;;17.35;13.40;;;3.80;72.80;;;;;;5008863;28;20266;-72
2022/04/01 12:29:44;;;;;;;20.77;14.77;;;3.90;74.90;;;;;;5009792;28;20212;-74
2022/04/01 12:32:18;;;;;;;19.85;15.65;;;4.00;75.10;;;;;;5008760;28;20212;-72
2022/04/01 12:34:46;;;;;;;14.77;13.10;;;4.00;74.00;;;;;;5011070;28;20232;-75
2022/04/01 12:37:15;;;;;;;18.85;14.20;;;3.80;73.60;;;;;;5009104;28;20215;-75
2022/04/01 12:39:45;;;;;;;18.33;14.60;;;3.80;76.30;;;;;;5007404;28;20658;-74
2022/04/01 12:42:14;;;;;;;17.38;12.90;;;3.80;77.50;;;;;;5008306;28;20251;-74
2022/04/01 12:44:44;;;;;;;19.27;15.05;;;3.90;78.60;;;;;;5007014;28;20697;-77
2022/04/01 12:47:13;;;;;;;18.40;14.25;;;4.00;77.80;;;;;;5004159;28;20204;-74
2022/04/01 12:49:43;;;;;;;17.05;13.80;;;4.00;78.30;;;;;;5000667;28;20216;-75
2022/04/01 12:52:17;;;;;;;18.30;12.90;;;4.10;77.30;;;;;;4998763;28;20211;-76
2022/04/01 12:54:50;;;;;;;13.25;10.93;;;3.90;75.70;;;;;;4998179;28;20299;-75
2022/04/01 12:57:20;;;;;;;13.75;12.00;;;4.00;76.40;;;;;;4998245;28;20438;-74
2022/04/01 12:59:49;;;;;;;13.95;11.80;;;4.30;77.40;;;;;;4997512;28;20213;-74
2022/04/01 13:02:18;;;;;;;14.25;11.70;;;4.40;74.90;;;;;;4998055;28;20227;-74